Time;durP1;ratioP1;P1;durP2;ratioP2;P2;SDS_P1;SDS_P2;PMS_P1;PMS_P2;Temp;Humidity;BMP_temperature;BMP_pressure;BME280_temperature;BME280_humidity;BME280_pressure;Samples;Min_cycle;Max_cycle;Signal;HPM_P1;HPM_P2
2021/10/11 00:02:23;;;;;;;;;69.00;54.50;;;;;;;;5010538;28;51069;-53
2021/10/11 00:04:49;;;;;;;;;66.50;52.75;;;;;;;;5001863;28;51117;-54
2021/10/11 00:07:14;;;;;;;;;66.00;53.00;;;;;;;;5010407;28;51125;-52
2021/10/11 00:09:39;;;;;;;;;69.25;54.00;;;;;;;;5010897;28;51391;-53
2021/10/11 00:12:06;;;;;;;;;67.75;52.50;;;;;;;;5009647;28;50959;-53
2021/10/11 00:14:31;;;;;;;;;68.25;52.00;;;;;;;;5010116;28;52140;-53
2021/10/11 00:16:56;;;;;;;;;66.00;52.25;;;;;;;;5008582;28;51966;-54
2021/10/11 00:19:21;;;;;;;;;72.50;56.75;;;;;;;;5010405;28;51033;-54
2021/10/11 00:21:47;;;;;;;;;66.75;53.25;;;;;;;;5010680;28;51184;-54
2021/10/11 00:24:12;;;;;;;;;66.00;52.25;;;;;;;;5009776;28;51252;-54
2021/10/11 00:26:37;;;;;;;;;69.25;54.25;;;;;;;;4992514;28;52851;-54
2021/10/11 00:29:03;;;;;;;;;72.75;55.00;;;;;;;;5009733;28;51881;-55
2021/10/11 00:31:28;;;;;;;;;66.50;53.25;;;;;;;;5009699;28;51044;-54
2021/10/11 00:33:53;;;;;;;;;71.00;56.00;;;;;;;;4992974;28;51331;-54
2021/10/11 00:36:18;;;;;;;;;68.50;54.00;;;;;;;;5005891;28;51720;-55
2021/10/11 00:38:44;;;;;;;;;68.75;54.75;;;;;;;;5013670;28;50956;-53
2021/10/11 00:41:09;;;;;;;;;71.75;55.00;;;;;;;;5014749;28;50948;-54
2021/10/11 00:43:34;;;;;;;;;71.25;56.00;;;;;;;;5014094;28;51167;-54
2021/10/11 00:46:00;;;;;;;;;70.75;56.25;;;;;;;;5013481;28;51727;-55
2021/10/11 00:48:25;;;;;;;;;72.50;57.25;;;;;;;;5014543;28;50974;-54
2021/10/11 00:50:51;;;;;;;;;75.75;58.50;;;;;;;;4995839;28;51330;-55
2021/10/11 00:53:17;;;;;;;;;68.00;52.75;;;;;;;;5011690;28;51264;-54
2021/10/11 00:55:42;;;;;;;;;69.50;54.50;;;;;;;;5012926;28;51784;-58
2021/10/11 00:58:07;;;;;;;;;75.00;57.75;;;;;;;;5012819;28;50998;-54
2021/10/11 01:00:33;;;;;;;;;71.75;56.75;;;;;;;;4996629;28;51157;-54
2021/10/11 01:02:58;;;;;;;;;71.75;58.00;;;;;;;;5014290;28;51293;-54
2021/10/11 01:05:23;;;;;;;;;75.00;58.25;;;;;;;;5014252;28;50994;-55
2021/10/11 01:07:48;;;;;;;;;76.00;58.25;;;;;;;;5010950;28;51077;-53
2021/10/11 01:10:14;;;;;;;;;73.75;58.25;;;;;;;;5013978;28;51219;-56
2021/10/11 01:12:39;;;;;;;;;74.75;58.75;;;;;;;;5014016;28;51113;-55
2021/10/11 01:15:05;;;;;;;;;73.75;57.75;;;;;;;;5012076;28;51886;-54
2021/10/11 01:17:30;;;;;;;;;70.50;56.50;;;;;;;;5010924;28;51104;-54
2021/10/11 01:19:59;;;;;;;;;73.25;56.75;;;;;;;;5013654;28;51072;-54
2021/10/11 01:22:38;;;;;;;;;78.75;57.50;;;;;;;;5011870;28;51167;-55
2021/10/11 01:25:05;;;;;;;;;73.25;58.75;;;;;;;;4996328;28;51950;-54
2021/10/11 01:27:30;;;;;;;;;70.50;56.25;;;;;;;;5011252;28;51119;-55
2021/10/11 01:29:56;;;;;;;;;71.75;55.75;;;;;;;;5014035;28;50977;-56
2021/10/11 01:32:21;;;;;;;;;77.25;59.00;;;;;;;;5014925;28;51258;-56
2021/10/11 01:34:46;;;;;;;;;69.00;56.50;;;;;;;;5013091;28;51124;-54
2021/10/11 01:37:11;;;;;;;;;74.75;58.25;;;;;;;;5013152;28;51009;-54
2021/10/11 01:39:36;;;;;;;;;70.00;55.25;;;;;;;;5011943;28;51166;-54
2021/10/11 01:42:02;;;;;;;;;69.00;55.25;;;;;;;;5014830;28;50972;-54
2021/10/11 01:44:27;;;;;;;;;70.00;56.00;;;;;;;;5012626;28;51148;-54
2021/10/11 01:46:52;;;;;;;;;69.00;56.00;;;;;;;;5011765;28;51238;-54
2021/10/11 01:49:17;;;;;;;;;76.00;56.75;;;;;;;;5003071;28;51107;-55
2021/10/11 01:51:43;;;;;;;;;70.00;55.25;;;;;;;;5012185;28;51284;-55
2021/10/11 01:54:08;;;;;;;;;69.75;55.25;;;;;;;;5013534;28;51966;-55
2021/10/11 01:56:33;;;;;;;;;67.50;55.25;;;;;;;;5011692;28;51002;-54
2021/10/11 01:58:59;;;;;;;;;68.00;55.00;;;;;;;;4996032;28;51288;-54
2021/10/11 02:01:24;;;;;;;;;68.75;53.00;;;;;;;;5013251;28;51244;-55
2021/10/11 02:03:49;;;;;;;;;63.00;51.25;;;;;;;;4991210;28;51994;-55
2021/10/11 02:06:15;;;;;;;;;63.75;52.00;;;;;;;;5013322;28;51026;-54
2021/10/11 02:08:40;;;;;;;;;63.25;52.00;;;;;;;;5013678;28;51033;-55
2021/10/11 02:11:05;;;;;;;;;65.75;51.50;;;;;;;;5014191;28;50998;-54
2021/10/11 02:13:30;;;;;;;;;66.00;52.25;;;;;;;;5008808;28;51464;-55
2021/10/11 02:15:55;;;;;;;;;66.25;52.50;;;;;;;;5013666;28;50961;-56
2021/10/11 02:18:21;;;;;;;;;60.25;49.00;;;;;;;;5013002;28;50820;-56
2021/10/11 02:20:46;;;;;;;;;69.25;55.25;;;;;;;;5014233;28;50908;-55
2021/10/11 02:23:11;;;;;;;;;67.00;54.00;;;;;;;;4993190;28;52988;-56
2021/10/11 02:25:36;;;;;;;;;66.75;53.25;;;;;;;;5012553;28;51356;-55
2021/10/11 02:28:02;;;;;;;;;66.25;51.75;;;;;;;;5012509;28;51063;-57
2021/10/11 02:30:27;;;;;;;;;66.75;54.00;;;;;;;;5011515;28;51315;-57
2021/10/11 02:32:52;;;;;;;;;69.25;54.00;;;;;;;;5013441;28;51670;-57
2021/10/11 02:35:20;;;;;;;;;66.25;51.25;;;;;;;;4993200;28;51235;-56
2021/10/11 02:37:45;;;;;;;;;68.50;53.00;;;;;;;;5011480;28;50994;-56
2021/10/11 02:40:11;;;;;;;;;68.50;54.50;;;;;;;;5013303;28;50925;-55
2021/10/11 02:42:36;;;;;;;;;62.50;52.25;;;;;;;;5013011;28;51738;-56
2021/10/11 02:45:02;;;;;;;;;69.25;51.75;;;;;;;;5008995;28;51126;-56
2021/10/11 02:47:27;;;;;;;;;68.75;54.25;;;;;;;;5008975;28;51316;-56
2021/10/11 02:49:52;;;;;;;;;70.25;53.25;;;;;;;;5013483;28;51109;-58
2021/10/11 02:52:18;;;;;;;;;66.00;52.00;;;;;;;;5012963;28;51945;-57
2021/10/11 02:54:43;;;;;;;;;65.25;51.00;;;;;;;;5011554;28;51051;-57
2021/10/11 02:57:08;;;;;;;;;67.00;54.00;;;;;;;;5011657;28;50947;-57
2021/10/11 02:59:33;;;;;;;;;66.25;53.50;;;;;;;;5012212;28;51081;-57
2021/10/11 03:01:58;;;;;;;;;65.75;53.25;;;;;;;;5012358;28;51795;-57
2021/10/11 03:04:24;;;;;;;;;65.75;52.75;;;;;;;;5009816;28;51156;-57
2021/10/11 03:06:49;;;;;;;;;64.50;52.25;;;;;;;;5008180;28;51133;-57
2021/10/11 03:09:14;;;;;;;;;61.00;48.50;;;;;;;;5010245;28;51264;-57
2021/10/11 03:11:39;;;;;;;;;63.50;50.00;;;;;;;;5013872;28;51943;-56
2021/10/11 03:14:04;;;;;;;;;62.25;49.25;;;;;;;;5009961;28;51030;-57
2021/10/11 03:16:30;;;;;;;;;62.50;50.00;;;;;;;;5011182;28;50855;-57
2021/10/11 03:18:55;;;;;;;;;59.50;49.00;;;;;;;;5012810;28;51206;-57
2021/10/11 03:21:21;;;;;;;;;57.50;47.75;;;;;;;;5010668;28;52532;-57
2021/10/11 03:23:50;;;;;;;;;53.75;44.75;;;;;;;;4997268;28;50974;-56
2021/10/11 03:26:16;;;;;;;;;57.25;46.00;;;;;;;;5008822;28;50923;-56
2021/10/11 03:28:42;;;;;;;;;60.25;47.00;;;;;;;;5011071;28;50954;-56
2021/10/11 03:31:07;;;;;;;;;57.50;47.25;;;;;;;;5011756;28;51894;-56
2021/10/11 03:33:32;;;;;;;;;55.25;46.50;;;;;;;;5007278;28;51149;-56
2021/10/11 03:35:57;;;;;;;;;54.50;45.75;;;;;;;;5024526;28;51075;-56
2021/10/11 03:38:23;;;;;;;;;54.25;44.25;;;;;;;;5010663;28;51169;-56
2021/10/11 03:40:48;;;;;;;;;49.00;41.50;;;;;;;;5011090;28;51824;-57
2021/10/11 03:43:13;;;;;;;;;48.00;40.75;;;;;;;;5011076;28;51037;-56
2021/10/11 03:45:38;;;;;;;;;52.00;42.50;;;;;;;;5012554;28;51104;-57
2021/10/11 03:48:04;;;;;;;;;43.75;38.50;;;;;;;;5012744;28;50943;-57
2021/10/11 03:50:29;;;;;;;;;49.25;40.25;;;;;;;;5012060;28;51233;-57
2021/10/11 03:52:54;;;;;;;;;51.50;41.75;;;;;;;;5009388;28;50839;-57
2021/10/11 03:55:19;;;;;;;;;46.75;39.50;;;;;;;;5012538;28;50861;-57
2021/10/11 03:57:44;;;;;;;;;42.00;36.50;;;;;;;;5012734;28;51316;-57
2021/10/11 04:00:10;;;;;;;;;38.50;33.00;;;;;;;;5009513;28;51665;-57
2021/10/11 04:02:35;;;;;;;;;41.00;35.50;;;;;;;;5011246;28;50839;-57
2021/10/11 04:05:00;;;;;;;;;36.25;33.25;;;;;;;;5009607;28;51008;-57
2021/10/11 04:07:26;;;;;;;;;37.50;33.00;;;;;;;;5005172;28;50851;-57
2021/10/11 04:09:51;;;;;;;;;31.00;30.50;;;;;;;;5000126;28;52698;-56
2021/10/11 04:12:20;;;;;;;;;29.50;28.50;;;;;;;;5008683;28;51030;-57
2021/10/11 04:14:45;;;;;;;;;27.25;25.25;;;;;;;;5014646;28;51241;-57
2021/10/11 04:17:11;;;;;;;;;30.00;27.25;;;;;;;;4997203;28;51120;-57
2021/10/11 04:19:36;;;;;;;;;31.00;25.75;;;;;;;;5015424;28;52076;-57
2021/10/11 04:22:01;;;;;;;;;25.50;25.00;;;;;;;;5014998;28;51017;-57
2021/10/11 04:24:27;;;;;;;;;24.50;24.00;;;;;;;;4993616;28;51118;-56
2021/10/11 04:26:52;;;;;;;;;22.50;21.00;;;;;;;;5011449;28;51255;-56
2021/10/11 04:29:17;;;;;;;;;25.25;24.00;;;;;;;;5012123;28;51683;-56
2021/10/11 04:31:42;;;;;;;;;26.50;25.50;;;;;;;;5012822;28;51014;-57
2021/10/11 04:34:07;;;;;;;;;23.50;22.25;;;;;;;;5013073;28;50947;-56
2021/10/11 04:36:33;;;;;;;;;28.00;24.00;;;;;;;;5015733;28;51248;-56
2021/10/11 04:38:58;;;;;;;;;27.50;25.50;;;;;;;;5011724;28;51958;-56
2021/10/11 04:41:23;;;;;;;;;23.25;21.00;;;;;;;;5003440;28;51063;-57
2021/10/11 04:43:49;;;;;;;;;24.75;23.50;;;;;;;;5006969;28;51251;-56
2021/10/11 04:46:14;;;;;;;;;17.50;16.75;;;;;;;;5007335;28;51297;-57
2021/10/11 04:48:40;;;;;;;;;25.25;24.00;;;;;;;;5012455;28;51892;-57
2021/10/11 04:51:05;;;;;;;;;34.75;26.50;;;;;;;;5014588;28;51145;-57
2021/10/11 04:53:30;;;;;;;;;20.75;19.75;;;;;;;;5014499;28;51440;-56
2021/10/11 04:55:55;;;;;;;;;22.25;22.25;;;;;;;;4996066;28;51284;-56
2021/10/11 04:58:21;;;;;;;;;23.25;22.25;;;;;;;;5014762;28;52145;-56
2021/10/11 05:00:46;;;;;;;;;28.75;25.75;;;;;;;;5012361;28;51144;-56
2021/10/11 05:03:11;;;;;;;;;21.50;20.50;;;;;;;;5010652;28;51125;-56
2021/10/11 05:05:37;;;;;;;;;20.25;19.25;;;;;;;;5015085;28;51198;-56
2021/10/11 05:08:02;;;;;;;;;24.25;21.00;;;;;;;;5013389;28;52180;-56
2021/10/11 05:10:27;;;;;;;;;18.50;17.00;;;;;;;;5010541;28;51156;-58
2021/10/11 05:12:53;;;;;;;;;19.00;17.25;;;;;;;;4996968;28;51018;-57
2021/10/11 05:15:18;;;;;;;;;19.50;18.50;;;;;;;;5014486;28;51205;-57
2021/10/11 05:17:43;;;;;;;;;13.75;13.75;;;;;;;;5013498;28;51028;-57
2021/10/11 05:20:10;;;;;;;;;16.00;14.75;;;;;;;;5014702;28;51074;-57
2021/10/11 05:22:35;;;;;;;;;19.50;17.25;;;;;;;;4995235;28;51135;-56
2021/10/11 05:25:00;;;;;;;;;19.75;16.75;;;;;;;;5014282;28;51434;-57
2021/10/11 05:27:26;;;;;;;;;17.25;16.25;;;;;;;;5003040;28;51142;-56
2021/10/11 05:29:51;;;;;;;;;20.50;18.00;;;;;;;;5007632;28;51052;-56
2021/10/11 05:32:16;;;;;;;;;16.25;15.50;;;;;;;;5006041;28;53049;-57
2021/10/11 05:34:41;;;;;;;;;16.00;14.50;;;;;;;;5012390;28;51049;-58
2021/10/11 05:37:07;;;;;;;;;16.00;14.00;;;;;;;;5013144;28;51586;-55
2021/10/11 05:39:32;;;;;;;;;12.50;11.75;;;;;;;;5011725;28;51165;-56
2021/10/11 05:41:57;;;;;;;;;15.75;14.00;;;;;;;;5010423;28;51212;-56
2021/10/11 05:44:22;;;;;;;;;13.75;13.00;;;;;;;;5010058;28;51152;-56
2021/10/11 05:46:48;;;;;;;;;16.00;14.00;;;;;;;;5011798;28;51788;-56
2021/10/11 05:49:13;;;;;;;;;15.25;13.50;;;;;;;;5010633;28;51105;-58
2021/10/11 05:51:39;;;;;;;;;14.00;14.00;;;;;;;;5008976;28;51117;-56
2021/10/11 05:54:04;;;;;;;;;11.75;11.25;;;;;;;;5012164;28;51186;-57
2021/10/11 05:56:29;;;;;;;;;15.50;14.00;;;;;;;;4994245;28;52832;-57
2021/10/11 05:58:54;;;;;;;;;16.00;14.50;;;;;;;;5012817;28;51141;-56
2021/10/11 06:01:20;;;;;;;;;13.00;12.00;;;;;;;;5011784;28;51438;-57
2021/10/11 06:03:45;;;;;;;;;15.00;12.25;;;;;;;;5014029;28;51321;-57
2021/10/11 06:06:10;;;;;;;;;16.25;15.25;;;;;;;;4996137;28;52256;-56
2021/10/11 06:08:35;;;;;;;;;17.00;16.50;;;;;;;;5013553;28;50994;-56
2021/10/11 06:11:00;;;;;;;;;12.00;11.25;;;;;;;;5013685;28;50923;-56
2021/10/11 06:13:26;;;;;;;;;13.75;12.00;;;;;;;;5013805;28;51070;-57
2021/10/11 06:15:51;;;;;;;;;12.00;12.00;;;;;;;;5007295;28;51611;-59
2021/10/11 06:18:16;;;;;;;;;13.25;13.25;;;;;;;;5022733;28;50969;-59
2021/10/11 06:20:41;;;;;;;;;8.33;8.33;;;;;;;;5011793;28;51159;-59
2021/10/11 06:23:07;;;;;;;;;9.33;9.33;;;;;;;;5012762;28;51035;-59
2021/10/11 06:25:32;;;;;;;;;11.00;10.00;;;;;;;;5012881;28;51268;-59
2021/10/11 06:27:57;;;;;;;;;10.00;7.25;;;;;;;;5012818;28;51072;-60
2021/10/11 06:30:22;;;;;;;;;11.50;11.00;;;;;;;;5012605;28;50839;-58
2021/10/11 06:32:48;;;;;;;;;11.00;10.25;;;;;;;;5013263;28;50927;-58
2021/10/11 06:35:13;;;;;;;;;12.00;11.00;;;;;;;;5009691;28;50987;-59
2021/10/11 06:37:38;;;;;;;;;11.75;11.00;;;;;;;;5009253;28;51198;-60
2021/10/11 06:40:04;;;;;;;;;9.50;9.00;;;;;;;;5012997;28;51038;-59
2021/10/11 06:42:29;;;;;;;;;10.50;7.75;;;;;;;;5010697;28;52607;-59
2021/10/11 06:44:55;;;;;;;;;10.25;10.00;;;;;;;;5009063;28;52725;-58
2021/10/11 06:47:20;;;;;;;;;9.75;9.75;;;;;;;;5011583;28;51222;-58
2021/10/11 06:49:46;;;;;;;;;11.00;10.50;;;;;;;;5011081;28;51041;-59
2021/10/11 06:52:13;;;;;;;;;10.50;8.75;;;;;;;;5011040;28;51057;-59
2021/10/11 06:54:38;;;;;;;;;10.25;10.25;;;;;;;;5001828;28;51173;-59
2021/10/11 06:57:03;;;;;;;;;12.00;10.33;;;;;;;;5006698;28;52473;-59
2021/10/11 06:59:28;;;;;;;;;14.75;13.50;;;;;;;;4991891;28;51177;-58
2021/10/11 07:01:53;;;;;;;;;8.75;7.50;;;;;;;;5006776;28;51211;-59
2021/10/11 07:04:20;;;;;;;;;9.75;8.00;;;;;;;;5008365;28;51119;-58
2021/10/11 07:06:45;;;;;;;;;9.25;8.00;;;;;;;;5009854;28;51165;-59
2021/10/11 07:09:11;;;;;;;;;9.67;8.67;;;;;;;;5005640;28;51578;-59
2021/10/11 07:11:36;;;;;;;;;12.50;10.00;;;;;;;;5006382;28;51396;-59
2021/10/11 07:14:01;;;;;;;;;11.00;10.75;;;;;;;;5002510;28;51843;-60
2021/10/11 07:16:26;;;;;;;;;7.67;7.67;;;;;;;;5009121;28;51653;-60
2021/10/11 07:18:52;;;;;;;;;6.33;6.33;;;;;;;;5011077;28;51142;-60
2021/10/11 07:21:17;;;;;;;;;9.67;8.00;;;;;;;;5005760;28;51200;-58
2021/10/11 07:23:42;;;;;;;;;8.00;8.00;;;;;;;;5006550;28;52571;-58
2021/10/11 07:26:07;;;;;;;;;11.67;9.00;;;;;;;;5009449;28;51326;-59
2021/10/11 07:28:33;;;;;;;;;8.00;7.67;;;;;;;;5011900;28;51185;-59
2021/10/11 07:30:58;;;;;;;;;7.00;7.00;;;;;;;;5010285;28;51082;-59
2021/10/11 07:33:24;;;;;;;;;9.67;8.33;;;;;;;;5005655;28;51292;-59
2021/10/11 07:35:49;;;;;;;;;9.67;9.67;;;;;;;;5008491;28;51201;-59
2021/10/11 07:38:15;;;;;;;;;8.67;8.67;;;;;;;;4992737;28;51292;-59
2021/10/11 07:40:40;;;;;;;;;7.00;7.00;;;;;;;;5005046;28;51071;-58
2021/10/11 07:43:05;;;;;;;;;6.67;6.00;;;;;;;;5010219;28;51408;-58
2021/10/11 07:45:30;;;;;;;;;12.67;9.00;;;;;;;;5011096;28;51270;-58
2021/10/11 07:47:56;;;;;;;;;8.33;8.00;;;;;;;;5011107;28;51678;-59
2021/10/11 07:50:21;;;;;;;;;8.33;8.33;;;;;;;;5011972;28;51358;-60
2021/10/11 07:52:46;;;;;;;;;8.00;6.33;;;;;;;;5009117;28;52357;-59
2021/10/11 07:55:12;;;;;;;;;5.33;5.33;;;;;;;;5022473;28;51105;-59
2021/10/11 07:57:37;;;;;;;;;7.33;7.33;;;;;;;;5014208;28;51113;-59
2021/10/11 08:00:04;;;;;;;;;8.33;6.67;;;;;;;;5011914;28;51002;-60
2021/10/11 08:02:29;;;;;;;;;7.00;7.00;;;;;;;;4993870;28;52072;-60
2021/10/11 08:04:55;;;;;;;;;6.33;6.00;;;;;;;;5011632;28;50979;-60
2021/10/11 08:07:20;;;;;;;;;6.67;6.00;;;;;;;;5012069;28;51095;-59
2021/10/11 08:09:45;;;;;;;;;7.33;6.00;;;;;;;;5024502;28;51312;-59
2021/10/11 08:12:10;;;;;;;;;5.00;4.67;;;;;;;;5013443;28;51820;-59
2021/10/11 08:14:36;;;;;;;;;6.00;5.00;;;;;;;;4993523;28;50920;-60
2021/10/11 08:17:01;;;;;;;;;1.00;0.33;;;;;;;;5012010;28;50976;-60
2021/10/11 08:19:27;;;;;;;;;5.67;5.33;;;;;;;;5012265;28;51326;-59
2021/10/11 08:21:52;;;;;;;;;5.33;4.00;;;;;;;;5010426;28;52502;-59
2021/10/11 08:24:17;;;;;;;;;6.33;6.00;;;;;;;;5008078;28;51290;-59
2021/10/11 08:26:43;;;;;;;;;7.00;5.67;;;;;;;;5011280;28;51092;-60
2021/10/11 08:29:08;;;;;;;;;4.33;4.33;;;;;;;;5010928;28;50985;-59
2021/10/11 08:31:33;;;;;;;;;5.33;5.33;;;;;;;;5011150;28;53072;-60
2021/10/11 08:33:59;;;;;;;;;5.67;4.00;;;;;;;;5011247;28;50960;-59
2021/10/11 08:36:24;;;;;;;;;6.67;5.67;;;;;;;;5011713;28;51092;-59
2021/10/11 08:38:50;;;;;;;;;5.00;4.00;;;;;;;;4993692;28;51339;-61
2021/10/11 08:41:15;;;;;;;;;3.00;3.00;;;;;;;;5011453;28;51024;-60
2021/10/11 08:43:41;;;;;;;;;4.00;3.67;;;;;;;;5008789;28;51115;-59
2021/10/11 08:46:07;;;;;;;;;4.00;3.00;;;;;;;;5006358;28;51155;-59
2021/10/11 08:48:33;;;;;;;;;5.00;5.00;;;;;;;;5010036;28;51399;-60
2021/10/11 08:50:59;;;;;;;;;5.00;5.00;;;;;;;;5008606;28;51042;-60
2021/10/11 08:53:24;;;;;;;;;4.33;4.33;;;;;;;;5003004;28;51362;-60
2021/10/11 08:55:50;;;;;;;;;3.00;3.00;;;;;;;;5010998;28;51201;-60
2021/10/11 08:58:15;;;;;;;;;1.33;1.33;;;;;;;;5011248;28;51269;-60
2021/10/11 09:00:40;;;;;;;;;5.00;3.00;;;;;;;;5013524;28;51434;-60
2021/10/11 09:03:07;;;;;;;;;3.00;3.00;;;;;;;;5011200;28;51111;-60
2021/10/11 09:05:36;;;;;;;;;7.00;6.67;;;;;;;;5013523;28;51280;-59
2021/10/11 09:08:04;;;;;;;;;2.00;2.00;;;;;;;;5014106;28;51475;-59
2021/10/11 09:10:30;;;;;;;;;5.33;4.67;;;;;;;;5013395;28;51945;-59
2021/10/11 09:12:56;;;;;;;;;5.00;5.00;;;;;;;;5014360;28;51007;-60
2021/10/11 09:15:27;;;;;;;;;3.00;2.33;;;;;;;;5013983;28;51141;-60
2021/10/11 09:18:01;;;;;;;;;1.67;1.67;;;;;;;;5014730;28;50931;-59
2021/10/11 09:20:26;;;;;;;;;1.00;1.00;;;;;;;;5012979;28;51989;-60
2021/10/11 09:22:52;;;;;;;;;5.00;4.00;;;;;;;;5013927;28;51016;-60
2021/10/11 09:25:18;;;;;;;;;2.67;2.33;;;;;;;;5014130;28;51284;-60
2021/10/11 09:27:45;;;;;;;;;2.33;2.33;;;;;;;;5014166;28;51368;-60
2021/10/11 09:30:11;;;;;;;;;2.67;2.67;;;;;;;;5013166;28;52149;-60
2021/10/11 09:32:37;;;;;;;;;4.67;3.00;;;;;;;;5012522;28;51299;-60
2021/10/11 09:35:12;;;;;;;;;3.00;2.00;;;;;;;;5014009;28;51140;-61
2021/10/11 09:37:38;;;;;;;;;4.00;3.00;;;;;;;;5013750;28;51157;-59
2021/10/11 09:40:04;;;;;;;;;2.00;1.00;;;;;;;;5013481;28;50910;-59
2021/10/11 09:42:29;;;;;;;;;3.00;3.00;;;;;;;;4995416;28;51157;-61
2021/10/11 09:44:57;;;;;;;;;1.00;1.00;;;;;;;;5013448;28;51208;-59
2021/10/11 09:50:01;;;;;;;;;4.67;4.00;;;;;;;;5013272;28;51864;-60
2021/10/11 09:52:26;;;;;;;;;2.00;2.00;;;;;;;;5013435;28;50999;-59
2021/10/11 09:54:52;;;;;;;;;3.00;3.00;;;;;;;;5013115;28;51214;-59
2021/10/11 09:57:19;;;;;;;;;2.00;1.67;;;;;;;;5013463;28;51192;-59
2021/10/11 09:59:44;;;;;;;;;1.33;1.00;;;;;;;;5012891;28;52040;-60
2021/10/11 10:02:10;;;;;;;;;2.00;1.00;;;;;;;;4994399;28;51162;-59
2021/10/11 10:04:38;;;;;;;;;2.33;2.33;;;;;;;;5012306;28;51282;-60
2021/10/11 10:07:05;;;;;;;;;5.00;4.67;;;;;;;;5013366;28;51492;-59
2021/10/11 10:09:30;;;;;;;;;5.00;4.67;;;;;;;;5012099;28;51876;-59
2021/10/11 10:11:56;;;;;;;;;4.00;4.00;;;;;;;;4993732;28;51178;-60
2021/10/11 10:14:22;;;;;;;;;2.33;2.33;;;;;;;;4997903;28;51125;-59
2021/10/11 10:16:52;;;;;;;;;5.00;4.00;;;;;;;;5011784;28;51083;-60
2021/10/11 10:19:18;;;;;;;;;4.00;4.00;;;;;;;;5012829;28;51238;-59
2021/10/11 10:21:45;;;;;;;;;2.33;2.00;;;;;;;;5012538;28;51108;-59
2021/10/11 10:24:10;;;;;;;;;2.00;1.67;;;;;;;;5012360;28;51206;-59
2021/10/11 10:26:36;;;;;;;;;4.00;4.00;;;;;;;;5012641;28;50827;-60
2021/10/11 10:29:11;;;;;;;;;3.33;3.33;;;;;;;;5011515;28;51268;-59
2021/10/11 10:31:37;;;;;;;;;3.67;3.67;;;;;;;;5009831;28;50956;-60
2021/10/11 10:34:35;;;;;;;;;4.00;4.00;;;;;;;;5012528;28;50864;-60
2021/10/11 10:37:05;;;;;;;;;2.00;1.00;;;;;;;;4957367;28;51185;-59
2021/10/11 10:39:36;;;;;;;;;2.67;2.67;;;;;;;;5012367;28;52607;-60
2021/10/11 10:42:02;;;;;;;;;3.33;2.67;;;;;;;;5002019;28;50953;-60
2021/10/11 10:44:27;;;;;;;;;1.67;1.67;;;;;;;;5011293;28;51457;-60
2021/10/11 10:46:54;;;;;;;;;2.00;2.00;;;;;;;;5013080;28;51060;-60
2021/10/11 10:49:36;;;;;;;;;3.00;2.33;;;;;;;;5012368;28;51620;-59
2021/10/11 10:52:08;;;;;;;;;5.00;5.00;;;;;;;;5013186;28;51088;-59
2021/10/11 10:54:33;;;;;;;;;4.00;4.00;;;;;;;;5007271;28;51094;-60
2021/10/11 10:56:59;;;;;;;;;1.67;1.00;;;;;;;;5012508;28;51339;-59
2021/10/11 10:59:24;;;;;;;;;3.33;2.33;;;;;;;;5011911;28;51037;-60
2021/10/11 11:01:50;;;;;;;;;3.00;3.00;;;;;;;;5010980;28;50904;-59
2021/10/11 11:04:21;;;;;;;;;2.67;2.33;;;;;;;;5012220;28;51453;-59
2021/10/11 11:06:57;;;;;;;;;6.00;4.33;;;;;;;;5012672;28;51149;-59
2021/10/11 11:09:22;;;;;;;;;4.33;4.00;;;;;;;;5011496;28;51094;-60
2021/10/11 11:11:48;;;;;;;;;3.00;3.00;;;;;;;;5011742;28;51196;-59
2021/10/11 11:14:14;;;;;;;;;4.33;4.00;;;;;;;;5010575;28;50927;-59
2021/10/11 11:16:39;;;;;;;;;2.33;2.33;;;;;;;;5011962;28;50997;-59
2021/10/11 11:19:08;;;;;;;;;3.33;3.33;;;;;;;;4993722;28;51993;-60
2021/10/11 11:21:34;;;;;;;;;3.00;2.00;;;;;;;;5012380;28;51423;-59
2021/10/11 11:23:59;;;;;;;;;2.00;1.67;;;;;;;;5011940;28;50950;-59
2021/10/11 11:26:24;;;;;;;;;3.00;3.00;;;;;;;;5012487;28;51065;-60
2021/10/11 11:28:49;;;;;;;;;4.67;4.33;;;;;;;;5011386;28;53281;-60
2021/10/11 11:31:16;;;;;;;;;4.00;4.00;;;;;;;;5011483;28;50994;-59
2021/10/11 11:33:45;;;;;;;;;4.00;3.67;;;;;;;;5012039;28;51141;-59
2021/10/11 11:36:10;;;;;;;;;2.00;1.33;;;;;;;;5011937;28;52343;-59
2021/10/11 11:38:37;;;;;;;;;3.00;3.00;;;;;;;;5003459;28;52214;-59
2021/10/11 11:41:04;;;;;;;;;4.00;4.00;;;;;;;;4997562;28;51818;-59
2021/10/11 11:43:30;;;;;;;;;3.00;1.67;;;;;;;;4996414;28;51092;-58
2021/10/11 11:45:56;;;;;;;;;3.67;3.67;;;;;;;;5000851;28;51412;-60
2021/10/11 11:48:32;;;;;;;;;6.00;3.33;;;;;;;;4997541;28;52073;-59
2021/10/11 11:50:57;;;;;;;;;3.00;3.00;;;;;;;;4997218;28;51170;-59
2021/10/11 11:53:23;;;;;;;;;1.00;1.00;;;;;;;;4998187;28;50864;-59
2021/10/11 11:55:50;;;;;;;;;3.00;2.67;;;;;;;;4989029;28;51256;-60
2021/10/11 11:58:26;;;;;;;;;3.33;3.33;;;;;;;;4995015;28;52207;-60
2021/10/11 12:00:52;;;;;;;;;5.33;4.00;;;;;;;;4994396;28;51197;-59
2021/10/11 12:03:18;;;;;;;;;2.33;2.33;;;;;;;;4992544;28;51062;-59
2021/10/11 12:05:46;;;;;;;;;6.33;5.00;;;;;;;;4999280;28;51119;-60
2021/10/11 12:08:14;;;;;;;;;5.33;5.33;;;;;;;;4993876;28;51417;-60
2021/10/11 12:10:39;;;;;;;;;4.33;4.33;;;;;;;;4997049;28;51273;-59
2021/10/11 12:13:05;;;;;;;;;5.00;4.00;;;;;;;;4993257;28;51138;-60
2021/10/11 12:15:31;;;;;;;;;4.33;4.00;;;;;;;;5005523;28;51240;-60
2021/10/11 12:18:02;;;;;;;;;5.00;5.00;;;;;;;;5005784;28;52472;-59
2021/10/11 12:20:37;;;;;;;;;4.00;3.33;;;;;;;;5011188;28;50977;-59
2021/10/11 12:23:03;;;;;;;;;6.00;5.00;;;;;;;;5010108;28;51074;-60
2021/10/11 12:25:31;;;;;;;;;4.00;4.00;;;;;;;;5011421;28;51361;-60
2021/10/11 12:28:06;;;;;;;;;7.00;6.33;;;;;;;;5011126;28;51962;-62
2021/10/11 12:30:31;;;;;;;;;7.00;6.00;;;;;;;;5008723;28;51128;-60
2021/10/11 12:33:01;;;;;;;;;4.67;4.00;;;;;;;;5011484;28;51032;-60
2021/10/11 12:35:26;;;;;;;;;5.00;5.00;;;;;;;;5014798;28;51093;-60
2021/10/11 12:37:52;;;;;;;;;4.00;4.00;;;;;;;;4980403;28;54373;-60
2021/10/11 12:40:18;;;;;;;;;4.00;4.00;;;;;;;;5014430;28;50942;-60
2021/10/11 12:42:46;;;;;;;;;5.67;4.67;;;;;;;;5014920;28;51026;-59
2021/10/11 12:45:13;;;;;;;;;6.00;5.33;;;;;;;;5006326;28;50908;-60
2021/10/11 12:47:39;;;;;;;;;7.00;6.00;;;;;;;;5014455;28;52135;-61
2021/10/11 12:50:13;;;;;;;;;9.00;9.00;;;;;;;;5014306;28;51105;-60
2021/10/11 12:52:42;;;;;;;;;6.67;6.00;;;;;;;;5014125;28;51111;-60
2021/10/11 12:55:07;;;;;;;;;4.33;4.00;;;;;;;;5010480;28;51468;-60
2021/10/11 12:57:33;;;;;;;;;6.00;6.00;;;;;;;;5000623;28;51916;-60
2021/10/11 12:59:58;;;;;;;;;6.00;6.00;;;;;;;;4997326;28;51215;-59
2021/10/11 13:02:23;;;;;;;;;4.00;4.00;;;;;;;;4998391;28;51301;-59
2021/10/11 13:04:48;;;;;;;;;4.33;4.00;;;;;;;;4996236;28;51106;-59
2021/10/11 13:07:13;;;;;;;;;7.00;6.00;;;;;;;;4997921;28;51591;-58
2021/10/11 13:09:39;;;;;;;;;7.00;6.00;;;;;;;;5002774;28;51225;-59
2021/10/11 13:12:04;;;;;;;;;6.00;5.67;;;;;;;;4998484;28;53081;-60
2021/10/11 13:14:29;;;;;;;;;3.00;3.00;;;;;;;;4996823;28;51368;-59
2021/10/11 13:16:55;;;;;;;;;5.00;5.00;;;;;;;;5000474;28;51623;-59
2021/10/11 13:19:20;;;;;;;;;6.00;4.67;;;;;;;;4995328;28;51024;-59
2021/10/11 13:21:46;;;;;;;;;4.67;4.00;;;;;;;;5001709;28;51154;-59
2021/10/11 13:24:11;;;;;;;;;4.00;4.00;;;;;;;;4999447;28;51353;-59
2021/10/11 13:26:36;;;;;;;;;6.00;6.00;;;;;;;;4998761;28;51952;-59
2021/10/11 14:28:25;;;;;;;;;6.33;6.00;;;;;;;;4996804;28;51137;-59
2021/10/11 14:31:09;;;;;;;;;8.33;8.33;;;;;;;;4997380;28;51823;-59
2021/10/11 16:00:43;;;;;;;;;10.00;10.00;;;;;;;;4999490;28;51089;-60
2021/10/11 16:03:18;;;;;;;;;6.67;6.67;;;;;;;;4996975;28;51255;-60
2021/10/11 16:05:44;;;;;;;;;10.00;8.00;;;;;;;;4993853;28;51439;-60
2021/10/11 16:08:09;;;;;;;;;8.67;8.67;;;;;;;;4997003;28;51373;-60
2021/10/11 16:10:34;;;;;;;;;10.00;9.33;;;;;;;;4999805;28;51256;-60
2021/10/11 16:12:59;;;;;;;;;10.00;9.33;;;;;;;;4997859;28;51241;-60
2021/10/11 16:15:25;;;;;;;;;8.00;7.33;;;;;;;;4998886;28;51172;-59
2021/10/11 16:17:50;;;;;;;;;9.67;8.00;;;;;;;;4995996;28;52735;-60
2021/10/11 16:20:15;;;;;;;;;7.00;7.00;;;;;;;;4999892;28;50995;-60
2021/10/11 16:22:40;;;;;;;;;5.00;5.00;;;;;;;;4996619;28;51046;-59
2021/10/11 16:25:07;;;;;;;;;7.00;6.00;;;;;;;;5004383;28;51365;-59
2021/10/11 16:27:32;;;;;;;;;10.33;8.33;;;;;;;;4999535;28;51401;-60
2021/10/11 16:29:58;;;;;;;;;8.00;7.00;;;;;;;;4998479;28;52944;-59
2021/10/11 16:32:23;;;;;;;;;7.33;7.00;;;;;;;;4998006;28;51233;-58
2021/10/11 16:34:48;;;;;;;;;8.00;7.67;;;;;;;;5002741;28;51774;-60
2021/10/11 16:37:13;;;;;;;;;10.00;9.00;;;;;;;;5000647;28;51029;-59
2021/10/11 16:39:39;;;;;;;;;7.67;7.67;;;;;;;;5001104;28;51173;-59
2021/10/11 16:42:04;;;;;;;;;8.00;7.33;;;;;;;;5001768;28;51263;-59
2021/10/11 16:44:29;;;;;;;;;7.33;7.33;;;;;;;;4998681;28;51360;-59
2021/10/11 16:46:54;;;;;;;;;7.67;7.67;;;;;;;;4997116;28;52023;-59
2021/10/11 16:49:20;;;;;;;;;8.33;8.33;;;;;;;;4995178;28;51578;-60
2021/10/11 16:51:45;;;;;;;;;10.67;9.00;;;;;;;;4997138;28;52585;-60
2021/10/11 16:56:36;;;;;;;;;8.67;8.67;;;;;;;;4997895;28;51925;-60